createdAt,value
2022-10-20T00:00:59.225Z,99.90
2022-10-20T00:03:28.275Z,99.90
2022-10-20T00:06:05.741Z,99.90
2022-10-20T00:08:33.051Z,99.90
2022-10-20T00:11:00.408Z,99.90
2022-10-20T00:13:27.766Z,99.90
2022-10-20T00:15:56.809Z,99.90
2022-10-20T00:18:24.779Z,99.90
2022-10-20T00:20:52.690Z,99.90
2022-10-20T00:23:20.117Z,99.90
2022-10-20T00:25:47.483Z,99.90
2022-10-20T00:28:14.800Z,99.90
2022-10-20T00:30:42.131Z,99.90
2022-10-20T00:33:09.394Z,99.90
2022-10-20T00:35:38.974Z,99.90
2022-10-20T00:38:06.379Z,99.90
2022-10-20T00:40:33.881Z,99.90
2022-10-20T00:43:01.296Z,99.90
2022-10-20T00:45:28.768Z,99.90
2022-10-20T00:47:59.496Z,99.90
2022-10-20T00:50:34.591Z,99.90
2022-10-20T00:53:02.528Z,99.90
2022-10-20T00:55:32.338Z,99.90
2022-10-20T00:58:00.924Z,99.90
2022-10-20T01:00:29.139Z,99.90
2022-10-20T01:02:59.288Z,99.90
2022-10-20T01:05:27.436Z,99.90
2022-10-20T01:07:54.795Z,99.90
2022-10-20T01:10:24.980Z,99.90
2022-10-20T01:13:05.371Z,99.90
2022-10-20T01:16:03.698Z,99.90
2022-10-20T01:18:48.170Z,99.90
2022-10-20T01:21:37.319Z,99.90
2022-10-20T01:27:16.506Z,99.90
2022-10-20T01:29:56.553Z,99.90
2022-10-20T01:33:03.149Z,99.90
2022-10-20T01:36:00.573Z,99.90
2022-10-20T01:38:39.096Z,99.90
2022-10-20T01:41:10.323Z,99.90
2022-10-20T01:43:41.927Z,99.90
2022-10-20T01:46:11.943Z,99.90
2022-10-20T01:48:40.546Z,99.90
2022-10-20T01:51:09.378Z,99.90
2022-10-20T01:53:37.335Z,99.90
2022-10-20T01:56:06.481Z,99.90
2022-10-20T01:59:10.723Z,99.90
2022-10-20T02:02:04.616Z,99.90
2022-10-20T02:05:00.387Z,99.90
2022-10-20T02:07:31.226Z,99.90
2022-10-20T02:10:21.280Z,99.90
2022-10-20T02:12:53.765Z,99.90
2022-10-20T02:15:25.513Z,99.90
2022-10-20T02:17:59.253Z,99.90
2022-10-20T02:20:29.167Z,99.90
2022-10-20T02:22:58.974Z,99.90
2022-10-20T02:25:28.275Z,99.90
2022-10-20T02:27:57.232Z,99.90
2022-10-20T02:30:24.902Z,99.90
2022-10-20T02:32:53.033Z,99.90
2022-10-20T02:35:26.157Z,99.90
2022-10-20T02:37:53.483Z,99.90
2022-10-20T02:40:22.352Z,99.90
2022-10-20T02:42:49.677Z,99.90
2022-10-20T02:45:17.588Z,99.90
2022-10-20T02:47:44.922Z,99.90
2022-10-20T02:50:12.566Z,99.90
2022-10-20T02:52:40.763Z,99.90
2022-10-20T02:55:08.583Z,99.90
2022-10-20T02:57:36.263Z,99.90
2022-10-20T03:00:05.430Z,99.90
2022-10-20T03:02:32.730Z,99.90
2022-10-20T03:05:00.097Z,99.90
2022-10-20T03:07:27.478Z,99.90
2022-10-20T03:09:54.830Z,99.90
2022-10-20T03:12:22.228Z,99.90
2022-10-20T03:14:49.594Z,99.90
2022-10-20T03:17:16.930Z,99.90
2022-10-20T03:19:44.221Z,99.90
2022-10-20T03:22:11.558Z,99.90
2022-10-20T03:24:38.907Z,99.90
2022-10-20T03:27:06.281Z,99.90
2022-10-20T03:29:33.720Z,99.90
2022-10-20T03:32:01.066Z,99.90
2022-10-20T03:34:28.391Z,99.90
2022-10-20T03:36:55.650Z,99.90
2022-10-20T03:39:23.043Z,99.90
2022-10-20T03:41:50.351Z,99.90
2022-10-20T03:44:17.685Z,99.90
2022-10-20T03:46:44.971Z,99.90
2022-10-20T03:49:12.548Z,99.90
2022-10-20T03:51:39.958Z,99.90
2022-10-20T03:54:07.262Z,99.90
2022-10-20T03:56:34.545Z,99.90
2022-10-20T03:59:01.927Z,99.90
2022-10-20T04:01:31.613Z,99.90
2022-10-20T04:03:59.149Z,99.90
2022-10-20T04:06:26.601Z,99.90
2022-10-20T04:08:54.019Z,99.90
2022-10-20T04:11:21.394Z,99.90
2022-10-20T04:13:48.687Z,99.90
2022-10-20T04:16:16.060Z,99.90
2022-10-20T04:18:43.511Z,99.90
2022-10-20T04:21:10.812Z,99.90
2022-10-20T04:23:38.121Z,99.90
2022-10-20T04:26:14.206Z,99.90
2022-10-20T04:28:41.761Z,99.90
2022-10-20T04:31:09.345Z,99.90
2022-10-20T04:33:36.782Z,99.90
2022-10-20T04:36:07.372Z,99.90
2022-10-20T04:38:36.054Z,99.90
2022-10-20T04:41:04.773Z,99.90
2022-10-20T04:43:33.361Z,99.90
2022-10-20T04:46:10.966Z,99.90
2022-10-20T04:48:43.245Z,99.90
2022-10-20T04:51:13.253Z,99.90
2022-10-20T04:53:40.705Z,99.90
2022-10-20T04:56:11.381Z,99.90
2022-10-20T04:58:38.727Z,99.90
2022-10-20T05:01:09.526Z,99.90
2022-10-20T05:03:37.408Z,99.90
2022-10-20T05:06:16.452Z,99.90
2022-10-20T05:08:46.656Z,99.90
2022-10-20T05:11:15.155Z,99.90
2022-10-20T05:13:43.220Z,99.90
2022-10-20T05:16:11.747Z,99.90
2022-10-20T05:18:40.256Z,99.90
2022-10-20T05:21:10.230Z,99.90
2022-10-20T05:23:39.435Z,99.90
2022-10-20T05:26:17.668Z,99.90
2022-10-20T05:28:50.405Z,99.90
2022-10-20T05:31:20.081Z,99.90
2022-10-20T05:33:50.957Z,99.90
2022-10-20T05:36:21.781Z,99.90
2022-10-20T05:38:52.113Z,99.90
2022-10-20T05:41:33.384Z,99.90
2022-10-20T05:44:05.460Z,99.90
2022-10-20T05:46:34.937Z,99.90
2022-10-20T05:49:03.401Z,99.90
2022-10-20T05:51:33.868Z,99.90
2022-10-20T05:54:01.264Z,99.90
2022-10-20T05:56:29.737Z,99.90
2022-10-20T05:58:57.840Z,99.90
2022-10-20T06:01:28.303Z,99.90
2022-10-20T06:03:58.162Z,99.90
2022-10-20T06:06:28.267Z,99.90
2022-10-20T06:08:57.427Z,99.90
2022-10-20T06:11:25.613Z,99.90
2022-10-20T06:13:53.414Z,99.90
2022-10-20T06:16:22.796Z,99.90
2022-10-20T06:18:50.260Z,99.90
2022-10-20T06:21:23.609Z,99.90
2022-10-20T06:23:51.749Z,99.90
2022-10-20T06:26:21.876Z,99.90
2022-10-20T06:28:51.675Z,99.90
2022-10-20T06:31:27.050Z,99.90
2022-10-20T06:33:55.131Z,99.90
2022-10-20T06:36:24.000Z,99.90
2022-10-20T06:38:58.974Z,99.90
2022-10-20T06:41:27.093Z,99.90
2022-10-20T06:43:58.948Z,99.90
2022-10-20T06:46:27.989Z,99.90
2022-10-20T06:48:58.610Z,99.90
2022-10-20T06:51:26.945Z,99.90
2022-10-20T06:53:54.300Z,99.90
2022-10-20T06:56:27.013Z,99.90
2022-10-20T06:58:55.366Z,99.90
2022-10-20T07:01:25.242Z,99.90
2022-10-20T07:03:55.307Z,99.90
2022-10-20T07:06:31.362Z,99.90
2022-10-20T07:08:59.619Z,99.90
2022-10-20T07:11:28.926Z,99.90
2022-10-20T07:13:58.312Z,99.90
2022-10-20T07:16:27.975Z,99.90
2022-10-20T07:18:55.741Z,99.90
2022-10-20T07:21:30.755Z,99.90
2022-10-20T07:24:02.685Z,99.30
2022-10-20T07:26:32.885Z,97.50
2022-10-20T07:29:01.752Z,94.80
2022-10-20T07:31:36.425Z,91.60
2022-10-20T07:34:24.007Z,90.00
2022-10-20T07:36:52.530Z,87.90
2022-10-20T07:39:19.992Z,86.80
2022-10-20T07:41:48.175Z,85.40
2022-10-20T07:44:16.788Z,84.50
2022-10-20T07:46:44.784Z,85.70
2022-10-20T07:51:59.907Z,86.60
2022-10-20T07:54:27.478Z,85.60
2022-10-20T07:56:54.854Z,83.10
2022-10-20T07:59:22.491Z,78.60
2022-10-20T08:01:49.978Z,78.50
2022-10-20T08:04:17.389Z,79.70
2022-10-20T08:06:47.170Z,80.50
2022-10-20T08:09:14.407Z,83.80
2022-10-20T08:11:41.769Z,83.50
2022-10-20T08:14:09.195Z,80.20
2022-10-20T08:16:47.034Z,77.90
2022-10-20T08:19:35.343Z,79.30
2022-10-20T08:22:02.665Z,83.80
2022-10-20T08:24:30.564Z,90.20
2022-10-20T08:26:57.993Z,92.00
2022-10-20T08:29:25.348Z,93.90
2022-10-20T08:31:52.771Z,94.80
2022-10-20T08:34:20.083Z,95.20
2022-10-20T08:36:47.569Z,94.40
2022-10-20T08:39:14.915Z,94.20
2022-10-20T08:42:06.997Z,94.50
2022-10-20T08:44:38.232Z,93.80
2022-10-20T08:47:21.514Z,92.70
2022-10-20T08:49:49.084Z,93.90
2022-10-20T08:52:18.359Z,91.60
2022-10-20T08:54:48.581Z,90.40
2022-10-20T08:57:28.722Z,87.60
2022-10-20T09:00:05.688Z,85.70
2022-10-20T09:02:35.558Z,82.20
2022-10-20T09:05:05.094Z,80.90
2022-10-20T09:07:35.617Z,83.80
2022-10-20T09:10:31.420Z,87.30
2022-10-20T09:13:00.101Z,87.50
2022-10-20T09:15:28.539Z,88.00
2022-10-20T09:18:09.806Z,89.20
2022-10-20T09:20:50.127Z,89.10
2022-10-20T09:23:39.953Z,88.60
2022-10-20T09:26:37.318Z,86.80
2022-10-20T09:29:13.729Z,84.80
2022-10-20T09:31:47.775Z,82.90
2022-10-20T09:34:28.330Z,82.10
2022-10-20T09:37:16.125Z,83.80
2022-10-20T09:39:55.448Z,87.90
2022-10-20T09:42:25.383Z,89.30
2022-10-20T09:44:56.949Z,90.40
2022-10-20T09:47:26.804Z,91.50
2022-10-20T09:50:00.964Z,92.20
2022-10-20T09:52:40.736Z,92.20
2022-10-20T09:55:36.938Z,92.20
2022-10-20T09:58:05.861Z,91.50
2022-10-20T10:00:39.678Z,90.70
2022-10-20T10:03:21.510Z,89.80
2022-10-20T10:05:56.505Z,89.20
2022-10-20T10:08:30.511Z,87.70
2022-10-20T10:11:14.234Z,86.70
2022-10-20T10:13:44.537Z,86.50
2022-10-20T10:16:15.492Z,87.20
2022-10-20T10:18:49.226Z,86.50
2022-10-20T10:21:17.543Z,87.90
2022-10-20T10:24:01.001Z,85.50
2022-10-20T10:26:37.239Z,85.80
2022-10-20T10:29:04.974Z,83.00
2022-10-20T10:31:33.522Z,83.30
2022-10-20T10:34:12.995Z,84.10
2022-10-20T10:36:40.696Z,83.30
2022-10-20T10:39:14.368Z,83.00
2022-10-20T10:42:04.290Z,82.30
2022-10-20T10:44:41.967Z,81.70
2022-10-20T10:47:40.180Z,79.50
2022-10-20T10:50:22.569Z,79.80
2022-10-20T10:53:15.881Z,80.50
2022-10-20T10:56:03.567Z,80.00
2022-10-20T10:58:52.268Z,77.30
2022-10-20T11:01:22.629Z,78.00
2022-10-20T11:04:11.382Z,78.00
2022-10-20T11:06:45.084Z,78.20
2022-10-20T11:09:20.743Z,75.80
2022-10-20T11:12:16.733Z,76.90
2022-10-20T11:14:57.715Z,76.20
2022-10-20T11:17:51.284Z,76.00
2022-10-20T11:20:36.545Z,75.70
2022-10-20T11:23:48.477Z,76.30
2022-10-20T11:26:32.703Z,76.20
2022-10-20T11:29:02.426Z,74.80
2022-10-20T11:31:59.397Z,76.90
2022-10-20T11:35:16.912Z,75.40
2022-10-20T11:37:51.664Z,77.20
2022-10-20T11:40:37.514Z,75.70
2022-10-20T11:43:36.096Z,75.90
2022-10-20T11:46:14.866Z,75.80
2022-10-20T11:48:52.565Z,75.70
2022-10-20T11:51:32.063Z,73.80
2022-10-20T11:54:05.447Z,75.30
2022-10-20T11:56:56.894Z,76.20
2022-10-20T11:59:52.099Z,76.60
2022-10-20T12:02:32.658Z,75.80
2022-10-20T12:05:05.934Z,76.30
2022-10-20T12:08:24.743Z,76.80
2022-10-20T12:11:19.891Z,76.50
2022-10-20T12:14:17.414Z,75.70
2022-10-20T12:16:53.918Z,75.80
2022-10-20T12:19:33.022Z,75.40
2022-10-20T12:22:03.457Z,75.80
2022-10-20T12:25:03.311Z,76.60
2022-10-20T12:27:30.726Z,76.60
2022-10-20T12:30:20.450Z,78.20
2022-10-20T12:33:00.859Z,76.10
2022-10-20T12:35:30.267Z,76.90
2022-10-20T12:38:02.336Z,76.80
2022-10-20T12:40:50.199Z,77.30
2022-10-20T12:43:33.509Z,76.90
2022-10-20T12:46:12.596Z,77.50
2022-10-20T12:48:44.959Z,78.30
2022-10-20T12:51:21.831Z,80.40
2022-10-20T12:53:56.614Z,81.40
2022-10-20T12:56:27.342Z,82.10
2022-10-20T12:59:22.801Z,82.50
2022-10-20T13:02:08.730Z,80.90
2022-10-20T13:05:01.450Z,82.40
2022-10-20T13:08:01.900Z,80.70
2022-10-20T13:10:37.618Z,83.00
2022-10-20T13:13:04.917Z,81.70
2022-10-20T13:15:38.031Z,83.00
2022-10-20T13:18:16.148Z,82.30
2022-10-20T13:20:56.653Z,85.20
2022-10-20T13:23:31.460Z,85.70
2022-10-20T13:26:04.120Z,86.20
2022-10-20T13:28:32.435Z,85.90
2022-10-20T13:31:28.737Z,86.40
2022-10-20T13:34:30.481Z,84.00
2022-10-20T13:37:21.641Z,84.80
2022-10-20T13:40:27.419Z,84.10
2022-10-20T13:42:54.696Z,85.10
2022-10-20T13:45:21.950Z,84.60
2022-10-20T13:47:57.390Z,87.10
2022-10-20T13:50:32.000Z,90.00
2022-10-20T13:53:22.925Z,86.70
2022-10-20T13:55:56.075Z,86.10
2022-10-20T13:58:24.655Z,86.70
2022-10-20T14:01:17.029Z,88.50
2022-10-20T14:03:46.789Z,88.80
2022-10-20T14:06:29.185Z,87.50
2022-10-20T14:08:58.147Z,89.00
2022-10-20T14:11:30.554Z,89.00
2022-10-20T14:14:01.134Z,87.80
2022-10-20T14:16:30.664Z,88.30
2022-10-20T14:19:12.198Z,88.60
2022-10-20T14:21:46.174Z,88.30
2022-10-20T14:24:36.117Z,88.80
2022-10-20T14:27:05.355Z,89.40
2022-10-20T14:29:35.337Z,89.20
2022-10-20T14:32:03.203Z,89.50
2022-10-20T14:34:37.053Z,89.60
2022-10-20T14:37:07.314Z,89.50
2022-10-20T14:39:37.851Z,90.30
2022-10-20T14:42:27.391Z,90.70
2022-10-20T14:44:56.978Z,90.00
2022-10-20T14:47:27.614Z,90.30
2022-10-20T14:49:55.820Z,90.20
2022-10-20T14:52:38.693Z,90.30
2022-10-20T14:55:27.396Z,90.40
2022-10-20T14:57:55.971Z,90.50
2022-10-20T15:00:33.857Z,90.80
2022-10-20T15:03:06.879Z,90.90
2022-10-20T15:05:37.786Z,91.10
2022-10-20T15:08:16.008Z,91.20
2022-10-20T15:10:43.693Z,91.60
2022-10-20T15:13:27.550Z,91.70
2022-10-20T15:16:00.109Z,92.00
2022-10-20T15:18:29.764Z,92.30
2022-10-20T15:20:57.365Z,92.70
2022-10-20T15:23:27.522Z,93.20
2022-10-20T15:26:01.395Z,93.60
2022-10-20T15:28:47.843Z,93.20
2022-10-20T15:31:21.166Z,93.30
2022-10-20T15:33:48.554Z,93.40
2022-10-20T15:36:20.897Z,93.50
2022-10-20T15:38:49.463Z,93.70
2022-10-20T15:41:28.569Z,94.20
2022-10-20T15:43:56.499Z,94.50
2022-10-20T15:46:24.040Z,94.80
2022-10-20T15:48:51.414Z,94.90
2022-10-20T15:51:24.490Z,95.40
2022-10-20T15:53:51.832Z,95.60
2022-10-20T15:56:19.843Z,95.80
2022-10-20T15:58:50.089Z,96.10
2022-10-20T16:01:19.794Z,96.30
2022-10-20T16:03:48.517Z,96.60
2022-10-20T16:06:18.664Z,96.50
2022-10-20T16:08:48.004Z,96.70
2022-10-20T16:11:16.860Z,96.80
2022-10-20T16:13:44.305Z,96.90
2022-10-20T16:16:18.214Z,97.40
2022-10-20T16:18:45.618Z,97.50
2022-10-20T16:21:13.204Z,98.00
2022-10-20T16:23:42.517Z,98.00
2022-10-20T16:26:13.471Z,98.30
2022-10-20T16:28:40.900Z,98.40
2022-10-20T16:31:10.556Z,98.50
2022-10-20T16:33:38.350Z,98.60
2022-10-20T16:36:09.291Z,98.70
2022-10-20T16:38:40.081Z,99.00
2022-10-20T16:41:13.116Z,99.10
2022-10-20T16:43:42.877Z,99.40
2022-10-20T16:46:12.037Z,99.80
2022-10-20T16:48:41.554Z,99.80
2022-10-20T16:51:13.038Z,99.90
2022-10-20T16:53:40.399Z,99.90
2022-10-20T16:56:08.330Z,99.90
2022-10-20T16:58:36.188Z,99.90
2022-10-20T17:01:12.579Z,99.90
2022-10-20T17:03:47.998Z,99.90
2022-10-20T17:06:18.413Z,99.90
2022-10-20T17:08:46.142Z,99.90
2022-10-20T17:11:16.481Z,99.90
2022-10-20T17:13:44.166Z,99.90
2022-10-20T17:16:17.522Z,99.90
2022-10-20T17:18:44.947Z,99.90
2022-10-20T17:21:14.035Z,99.90
2022-10-20T17:23:43.146Z,99.90
2022-10-20T17:26:17.471Z,99.90
2022-10-20T17:28:45.573Z,99.90
2022-10-20T17:33:47.190Z,99.90
2022-10-20T17:36:15.144Z,99.90
2022-10-20T17:38:42.942Z,99.90
2022-10-20T17:41:15.900Z,99.90
2022-10-20T17:43:43.145Z,99.90
2022-10-20T17:46:15.663Z,99.90
2022-10-20T17:48:43.022Z,99.90
2022-10-20T17:51:11.494Z,99.90
2022-10-20T17:53:41.522Z,99.90
2022-10-20T17:56:12.289Z,99.90
2022-10-20T17:58:41.277Z,99.90
2022-10-20T18:01:13.449Z,99.90
2022-10-20T18:03:42.097Z,99.90
2022-10-20T18:06:15.398Z,99.90
2022-10-20T18:08:43.190Z,99.90
2022-10-20T18:11:16.357Z,99.90
2022-10-20T18:13:44.449Z,99.90
2022-10-20T18:16:18.213Z,99.90
2022-10-20T18:18:45.932Z,99.90
2022-10-20T18:21:14.969Z,99.90
2022-10-20T18:23:45.528Z,99.90
2022-10-20T18:26:16.033Z,99.90
2022-10-20T18:28:47.381Z,99.90
2022-10-20T18:31:23.107Z,99.90
2022-10-20T18:33:54.195Z,99.90
2022-10-20T18:36:21.718Z,99.90
2022-10-20T18:38:49.178Z,99.90
2022-10-20T18:41:24.534Z,99.90
2022-10-20T18:43:59.819Z,99.90
2022-10-20T18:46:29.226Z,99.90
2022-10-20T18:48:57.489Z,99.90
2022-10-20T18:51:25.187Z,99.90
2022-10-20T18:53:55.738Z,99.90
2022-10-20T18:56:25.315Z,99.90
2022-10-20T18:58:58.741Z,99.90
2022-10-20T19:01:29.126Z,99.90
2022-10-20T19:03:57.620Z,99.90
2022-10-20T19:06:30.175Z,99.90
2022-10-20T19:09:00.228Z,99.90
2022-10-20T19:11:30.320Z,99.90
2022-10-20T19:13:58.418Z,99.90
2022-10-20T19:16:28.878Z,99.90
2022-10-20T19:18:58.182Z,99.90
2022-10-20T19:21:26.867Z,99.90
2022-10-20T19:24:16.187Z,99.90
2022-10-20T19:27:24.673Z,99.90
2022-10-20T19:29:42.433Z,99.90
2022-10-20T19:32:10.520Z,99.90
2022-10-20T19:34:40.379Z,99.90
2022-10-20T19:37:09.274Z,99.90
2022-10-20T19:39:40.529Z,99.90
2022-10-20T19:42:09.848Z,99.90
2022-10-20T19:44:37.982Z,99.90
2022-10-20T19:47:05.822Z,99.90
2022-10-20T19:49:34.429Z,99.90
2022-10-20T19:52:01.969Z,99.90
2022-10-20T19:54:29.280Z,99.90
2022-10-20T19:56:57.124Z,99.90
2022-10-20T19:59:25.050Z,99.90
2022-10-20T20:01:52.770Z,99.90
2022-10-20T20:04:21.577Z,99.90
2022-10-20T20:06:49.222Z,99.90
2022-10-20T20:09:16.777Z,99.90
2022-10-20T20:11:44.525Z,99.90
2022-10-20T20:14:17.276Z,99.90
2022-10-20T20:16:48.010Z,99.90
2022-10-20T20:19:17.290Z,99.90
2022-10-20T20:21:46.220Z,99.90
2022-10-20T20:24:14.669Z,99.90
2022-10-20T20:26:44.644Z,99.90
2022-10-20T20:29:12.142Z,99.90
2022-10-20T20:31:39.518Z,99.90
2022-10-20T20:34:07.025Z,99.90
2022-10-20T20:36:34.572Z,99.90
2022-10-20T20:39:02.227Z,99.90
2022-10-20T20:41:31.118Z,99.90
2022-10-20T20:43:59.266Z,99.90
2022-10-20T20:46:30.993Z,99.90
2022-10-20T20:48:58.506Z,99.90
2022-10-20T20:51:27.036Z,99.90
2022-10-20T20:53:57.399Z,99.90
2022-10-20T20:56:27.023Z,99.90
2022-10-20T20:58:55.567Z,99.90
2022-10-20T21:01:27.451Z,99.90
2022-10-20T21:03:55.807Z,99.90
2022-10-20T21:06:28.922Z,99.90
2022-10-20T21:09:01.234Z,99.90
2022-10-20T21:11:29.908Z,99.90
2022-10-20T21:13:58.959Z,99.90
2022-10-20T21:16:29.361Z,99.90
2022-10-20T21:19:00.051Z,99.90
2022-10-20T21:21:30.510Z,99.90
2022-10-20T21:23:58.494Z,99.90
2022-10-20T21:26:27.146Z,99.90
2022-10-20T21:28:54.871Z,99.90
2022-10-20T21:31:25.073Z,99.90
2022-10-20T21:33:57.647Z,99.90
2022-10-20T21:36:27.180Z,99.90
2022-10-20T21:38:54.629Z,99.90
2022-10-20T21:41:24.260Z,99.90
2022-10-20T21:43:53.959Z,99.90
2022-10-20T21:46:33.355Z,99.90
2022-10-20T21:49:06.724Z,99.90
2022-10-20T21:51:36.802Z,99.90
2022-10-20T21:54:10.816Z,99.90
2022-10-20T21:56:41.079Z,99.90
2022-10-20T21:59:20.237Z,99.90
2022-10-20T22:01:48.867Z,99.90
2022-10-20T22:04:18.282Z,99.90
2022-10-20T22:06:46.014Z,99.90
2022-10-20T22:09:15.269Z,99.90
2022-10-20T22:11:45.491Z,99.90
2022-10-20T22:14:13.043Z,99.90
2022-10-20T22:16:42.110Z,99.90
2022-10-20T22:19:14.152Z,99.90
2022-10-20T22:21:43.987Z,99.90
2022-10-20T22:24:11.554Z,99.90
2022-10-20T22:26:39.314Z,99.90
2022-10-20T22:29:11.970Z,99.90
2022-10-20T22:31:40.278Z,99.90
2022-10-20T22:34:08.401Z,99.90
2022-10-20T22:36:35.770Z,99.90
2022-10-20T22:39:03.705Z,99.90
2022-10-20T22:41:31.063Z,99.90
2022-10-20T22:43:58.515Z,99.90
2022-10-20T22:46:25.960Z,99.90
2022-10-20T22:48:53.433Z,99.90
2022-10-20T22:51:20.809Z,99.90
2022-10-20T22:53:48.072Z,99.90
2022-10-20T22:56:20.794Z,99.90
2022-10-20T22:58:48.559Z,99.90
2022-10-20T23:01:19.750Z,99.90
2022-10-20T23:03:47.351Z,99.90
2022-10-20T23:06:17.489Z,99.90
2022-10-20T23:08:47.962Z,99.90
2022-10-20T23:11:16.595Z,99.90
2022-10-20T23:13:45.021Z,99.90
2022-10-20T23:16:12.474Z,99.90
2022-10-20T23:18:40.022Z,99.90
2022-10-20T23:21:07.876Z,99.90
2022-10-20T23:23:37.342Z,99.90
2022-10-20T23:26:08.397Z,99.90
2022-10-20T23:28:36.707Z,99.90
2022-10-20T23:31:09.903Z,99.90
2022-10-20T23:33:38.859Z,99.90
2022-10-20T23:36:06.513Z,99.90
2022-10-20T23:38:34.519Z,99.90
2022-10-20T23:41:01.936Z,99.90
2022-10-20T23:43:29.255Z,99.90
2022-10-20T23:45:56.570Z,99.90
2022-10-20T23:48:23.964Z,99.90
2022-10-20T23:50:51.377Z,99.90
2022-10-20T23:53:18.852Z,99.90
2022-10-20T23:55:47.080Z,99.90
2022-10-20T23:58:14.618Z,99.90
